Time;durP1;ratioP1;P1;durP2;ratioP2;P2;SDS_P1;SDS_P2;PMS_P1;PMS_P2;Temp;Humidity;BMP_temperature;BMP_pressure;BME280_temperature;BME280_humidity;BME280_pressure;Samples;Min_cycle;Max_cycle;Signal;HPM_P1;HPM_P2
2024/01/20 00:01:41;;;;;;;13.57;8.48;;;;;;;-0.60;76.10;99299.91;4937708;29;20488;-71
2024/01/20 00:04:07;;;;;;;12.52;10.27;;;;;;;-0.51;76.81;99264.66;4950984;23;20040;-74
2024/01/20 00:06:32;;;;;;;15.30;10.48;;;;;;;-0.34;76.17;99272.63;4927311;29;20381;-75
2024/01/20 00:08:58;;;;;;;17.33;10.02;;;;;;;-0.43;76.76;99262.09;4920407;29;20471;-74
2024/01/20 00:11:23;;;;;;;15.23;10.52;;;;;;;-0.36;76.38;99266.63;4933830;29;20381;-74
2024/01/20 00:13:49;;;;;;;15.63;10.73;;;;;;;-0.41;76.85;99266.25;4934489;29;20086;-74
2024/01/20 00:16:14;;;;;;;12.98;8.25;;;;;;;-0.59;76.53;99273.31;4932692;29;20107;-74
2024/01/20 00:18:40;;;;;;;17.27;10.07;;;;;;;-0.48;77.06;99280.22;4952487;29;20027;-73
2024/01/20 00:21:05;;;;;;;13.38;9.38;;;;;;;-0.46;76.53;99284.38;4933780;29;20070;-75
2024/01/20 00:23:31;;;;;;;14.80;9.07;;;;;;;-0.70;76.70;99289.38;4919876;29;20032;-72
2024/01/20 00:25:56;;;;;;;14.52;10.93;;;;;;;-0.64;76.44;99293.25;4921243;29;20032;-74
2024/01/20 00:28:22;;;;;;;13.02;9.48;;;;;;;-0.55;76.10;99297.66;4931614;29;20423;-72
2024/01/20 00:30:47;;;;;;;15.48;8.05;;;;;;;-0.65;75.94;99287.13;4933854;29;20047;-74
2024/01/20 00:33:13;;;;;;;16.05;9.15;;;;;;;-0.55;75.75;99293.19;4919877;29;20043;-75
2024/01/20 00:35:42;;;;;;;14.50;8.80;;;;;;;-0.69;76.15;99277.81;4928789;29;20115;-75
2024/01/20 00:38:08;;;;;;;17.92;9.63;;;;;;;-0.55;76.64;99274.69;4933153;29;20035;-75
2024/01/20 00:40:34;;;;;;;12.35;9.13;;;;;;;-0.51;75.96;99276.03;4926410;29;20032;-75
2024/01/20 00:42:59;;;;;;;16.25;8.35;;;;;;;-0.63;76.07;99287.00;4917216;29;20035;-74
2024/01/20 00:45:25;;;;;;;13.50;7.97;;;;;;;-0.74;75.80;99278.25;4944369;28;20385;-74
2024/01/20 00:47:50;;;;;;;14.13;9.50;;;;;;;-0.62;76.29;99278.06;4931531;29;20115;-74
2024/01/20 00:50:16;;;;;;;13.45;10.05;;;;;;;-0.67;76.27;99275.84;4912055;29;20078;-74
2024/01/20 00:52:41;;;;;;;13.68;9.90;;;;;;;-0.53;76.11;99293.03;4935905;29;20638;-74
2024/01/20 00:55:07;;;;;;;13.18;9.43;;;;;;;-0.61;76.22;99291.16;4929287;29;20032;-74
2024/01/20 00:57:33;;;;;;;14.23;10.05;;;;;;;-0.58;75.62;99295.31;4932419;29;20534;-73
2024/01/20 00:59:59;;;;;;;13.52;9.73;;;;;;;-0.60;75.90;99303.38;4932553;29;20032;-74
2024/01/20 01:02:25;;;;;;;14.93;9.88;;;;;;;-0.75;76.15;99304.88;4916575;29;20026;-73
2024/01/20 01:04:50;;;;;;;13.77;9.88;;;;;;;-0.61;76.25;99301.75;4932564;29;20040;-73
2024/01/20 01:07:16;;;;;;;15.95;10.90;;;;;;;-0.66;75.58;99288.13;4927004;29;20082;-73
2024/01/20 01:09:42;;;;;;;14.70;10.95;;;;;;;-0.58;76.39;99306.72;4932023;29;20043;-74
2024/01/20 01:12:07;;;;;;;16.35;9.35;;;;;;;-0.66;75.08;99306.63;4932484;29;20025;-73
2024/01/20 01:14:33;;;;;;;13.30;10.32;;;;;;;-0.64;75.17;99312.59;4941960;28;20048;-72
2024/01/20 01:16:58;;;;;;;12.95;9.98;;;;;;;-0.69;74.81;99304.28;4950079;29;20030;-73
2024/01/20 01:19:24;;;;;;;16.88;10.45;;;;;;;-0.72;75.48;99291.31;4926308;29;20040;-75
2024/01/20 01:21:50;;;;;;;15.60;10.82;;;;;;;-0.71;75.72;99300.94;4920360;29;20060;-75
2024/01/20 01:24:16;;;;;;;15.05;9.32;;;;;;;-0.78;76.64;99321.00;4935661;29;20090;-75
2024/01/20 01:26:41;;;;;;;12.77;10.98;;;;;;;-0.59;75.88;99331.53;4928301;29;20031;-75
2024/01/20 01:29:07;;;;;;;15.85;9.27;;;;;;;-0.76;76.29;99330.47;4934300;29;20028;-73
2024/01/20 01:31:32;;;;;;;16.10;10.30;;;;;;;-0.58;76.70;99332.34;4919309;29;20031;-74
2024/01/20 01:33:58;;;;;;;17.65;10.75;;;;;;;-0.53;76.12;99330.06;4947861;28;20039;-73
2024/01/20 01:36:23;;;;;;;15.70;9.75;;;;;;;-0.70;76.89;99329.03;4934950;29;20483;-72
2024/01/20 01:38:49;;;;;;;17.25;10.60;;;;;;;-0.68;75.50;99335.03;4940180;29;20040;-73
2024/01/20 01:41:14;;;;;;;13.75;8.43;;;;;;;-0.77;75.95;99330.63;4930573;29;20387;-73
2024/01/20 01:43:40;;;;;;;14.05;10.10;;;;;;;-0.75;75.32;99315.44;4931703;29;20063;-73
2024/01/20 01:46:05;;;;;;;15.48;10.90;;;;;;;-0.66;75.63;99324.31;4929367;29;20019;-74
2024/01/20 01:48:33;;;;;;;12.90;10.20;;;;;;;-0.74;76.18;99317.09;4925467;29;20032;-74
2024/01/20 01:51:00;;;;;;;12.80;10.18;;;;;;;-0.59;76.24;99339.44;4926943;29;20543;-74
2024/01/20 01:53:25;;;;;;;13.48;10.23;;;;;;;-0.60;75.88;99334.28;4930105;29;20040;-73
2024/01/20 01:55:51;;;;;;;15.45;10.07;;;;;;;-0.78;76.38;99328.94;4932209;29;20086;-74
2024/01/20 01:58:17;;;;;;;16.17;9.95;;;;;;;-0.79;76.09;99336.03;4926711;29;20416;-73
2024/01/20 02:00:42;;;;;;;15.40;10.32;;;;;;;-0.68;76.65;99348.25;4916080;29;20043;-74
2024/01/20 02:03:09;;;;;;;15.00;11.18;;;;;;;-0.72;76.59;99341.56;4944671;29;20027;-74
2024/01/20 02:05:35;;;;;;;16.40;11.55;;;;;;;-0.68;75.99;99329.75;4931419;29;20043;-74
2024/01/20 02:08:01;;;;;;;14.50;9.77;;;;;;;-0.78;75.99;99326.31;4920947;29;20494;-74
2024/01/20 02:10:27;;;;;;;19.33;11.65;;;;;;;-0.75;76.10;99307.50;4931336;28;20031;-74
2024/01/20 02:12:53;;;;;;;15.18;12.07;;;;;;;-0.61;76.54;99333.47;4917869;29;20397;-74
2024/01/20 02:15:19;;;;;;;16.50;11.60;;;;;;;-0.71;75.77;99338.81;4945141;29;20036;-74
2024/01/20 02:17:51;;;;;;;17.90;11.38;;;;;;;-0.68;75.62;99345.63;4939842;29;20556;-74
2024/01/20 02:20:16;;;;;;;14.48;9.95;;;;;;;-0.76;76.13;99340.22;4933743;29;20499;-73
2024/01/20 02:22:42;;;;;;;18.73;10.55;;;;;;;-0.88;76.08;99328.97;4930257;28;20024;-74
2024/01/20 02:25:08;;;;;;;18.73;12.55;;;;;;;-0.61;75.93;99343.22;4923509;29;20040;-75
2024/01/20 02:27:33;;;;;;;17.20;12.73;;;;;;;-0.59;76.36;99335.97;4929893;29;20042;-75
2024/01/20 02:29:58;;;;;;;16.92;12.48;;;;;;;-0.66;76.67;99346.31;4932223;29;20039;-75
2024/01/20 02:32:24;;;;;;;17.25;10.88;;;;;;;-0.89;76.96;99356.38;4941130;29;20110;-73
2024/01/20 02:34:49;;;;;;;16.92;12.15;;;;;;;-0.96;76.94;99346.53;4917113;29;20531;-75
2024/01/20 02:37:15;;;;;;;19.77;11.32;;;;;;;-0.89;76.16;99366.16;4924297;29;20464;-73
2024/01/20 02:39:41;;;;;;;17.33;12.63;;;;;;;-0.91;76.46;99352.25;4936945;29;20054;-73
2024/01/20 02:42:08;;;;;;;20.70;12.68;;;;;;;-0.88;76.40;99351.94;4929742;29;20110;-74
2024/01/20 02:44:34;;;;;;;19.48;12.52;;;;;;;-0.70;75.69;99355.47;4947533;29;20499;-73
2024/01/20 02:46:59;;;;;;;16.95;12.20;;;;;;;-0.68;76.32;99368.59;4929913;29;20110;-74
2024/01/20 02:49:25;;;;;;;19.48;12.82;;;;;;;-0.76;75.85;99353.44;4915699;29;20058;-74
2024/01/20 02:51:51;;;;;;;17.55;10.57;;;;;;;-0.81;75.67;99371.53;4938391;29;20459;-73
2024/01/20 02:54:16;;;;;;;19.50;13.30;;;;;;;-0.80;76.42;99375.84;4950952;28;20039;-74
2024/01/20 02:56:42;;;;;;;19.67;11.07;;;;;;;-0.95;76.26;99377.28;4929670;29;20081;-74
2024/01/20 02:59:07;;;;;;;19.30;11.25;;;;;;;-0.95;76.28;99382.56;4941211;29;20680;-75
2024/01/20 03:01:33;;;;;;;15.43;12.70;;;;;;;-0.80;76.97;99392.56;4949462;29;20075;-72
2024/01/20 03:03:58;;;;;;;18.30;13.85;;;;;;;-0.74;76.19;99391.13;4932255;29;20531;-74
2024/01/20 03:06:23;;;;;;;17.33;11.45;;;;;;;-0.82;76.64;99391.03;4926678;29;20490;-73
2024/01/20 03:08:49;;;;;;;18.35;11.02;;;;;;;-0.88;77.12;99383.66;4906142;29;20093;-73
2024/01/20 03:11:14;;;;;;;19.55;14.38;;;;;;;-0.80;77.00;99370.56;4931994;29;20495;-73
2024/01/20 03:13:40;;;;;;;20.50;15.05;;;;;;;-0.72;77.22;99383.88;4914818;29;20127;-73
2024/01/20 03:16:05;;;;;;;21.48;14.50;;;;;;;-0.67;76.64;99384.28;4926996;29;20035;-73
2024/01/20 03:18:31;;;;;;;23.23;15.35;;;;;;;-0.72;77.02;99383.88;4930373;29;20118;-70
2024/01/20 03:20:56;;;;;;;20.75;13.50;;;;;;;-0.82;77.14;99383.91;4924785;29;20055;-74
2024/01/20 03:23:22;;;;;;;18.50;15.05;;;;;;;-0.88;77.74;99368.63;4931951;29;20558;-73
2024/01/20 03:25:47;;;;;;;18.85;12.63;;;;;;;-0.82;77.12;99393.69;4932012;29;20480;-73
2024/01/20 03:28:13;;;;;;;22.15;13.10;;;;;;;-0.85;77.48;99394.78;4929816;29;20095;-74
2024/01/20 03:30:38;;;;;;;19.13;15.38;;;;;;;-0.89;77.48;99371.44;4921091;29;20030;-74
2024/01/20 03:33:04;;;;;;;20.05;14.18;;;;;;;-0.72;77.42;99394.47;4933639;29;20039;-74
2024/01/20 03:35:29;;;;;;;22.23;12.00;;;;;;;-0.85;76.87;99388.66;4943306;28;20167;-73
2024/01/20 03:37:55;;;;;;;18.50;15.00;;;;;;;-0.69;77.02;99394.19;4935877;29;20047;-75
2024/01/20 03:40:20;;;;;;;21.30;15.57;;;;;;;-0.64;77.34;99397.25;4923031;29;20500;-73
2024/01/20 03:42:46;;;;;;;17.58;15.02;;;;;;;-0.82;77.22;99388.38;4914641;29;20032;-72
2024/01/20 03:45:11;;;;;;;23.15;12.85;;;;;;;-1.00;77.81;99390.06;4940408;29;20106;-74
2024/01/20 03:47:37;;;;;;;20.55;13.25;;;;;;;-0.88;77.74;99405.66;4942335;29;20040;-73
2024/01/20 03:50:03;;;;;;;17.70;12.65;;;;;;;-1.08;77.70;99371.47;4928622;29;20028;-73
2024/01/20 03:52:29;;;;;;;20.88;12.13;;;;;;;-0.89;77.21;99405.81;4946424;29;20082;-73
2024/01/20 03:54:54;;;;;;;24.85;16.45;;;;;;;-0.86;76.84;99381.69;4936194;28;20032;-72
2024/01/20 03:57:20;;;;;;;22.48;15.65;;;;;;;-0.80;77.34;99402.31;4934474;29;20364;-73
2024/01/20 03:59:46;;;;;;;19.30;12.98;;;;;;;-1.01;76.86;99404.28;4922656;29;20065;-73
2024/01/20 04:02:12;;;;;;;18.10;12.30;;;;;;;-1.02;77.05;99405.25;4942536;29;20035;-73
2024/01/20 04:04:37;;;;;;;21.40;14.65;;;;;;;-0.88;77.68;99416.22;4943638;29;20399;-74
2024/01/20 04:07:03;;;;;;;18.77;11.82;;;;;;;-1.04;76.99;99423.06;4937547;29;20040;-73
2024/01/20 04:09:29;;;;;;;20.98;12.18;;;;;;;-1.14;77.12;99420.44;4935422;29;20024;-73
2024/01/20 04:11:54;;;;;;;16.70;12.85;;;;;;;-1.00;76.97;99422.63;4940036;29;20051;-73
2024/01/20 04:14:20;;;;;;;18.38;11.25;;;;;;;-1.31;77.33;99417.66;4941974;29;20118;-74
2024/01/20 04:16:45;;;;;;;17.17;11.25;;;;;;;-1.16;76.99;99426.81;4939222;29;20372;-74
2024/01/20 04:19:11;;;;;;;17.15;13.30;;;;;;;-1.05;76.99;99432.00;4942538;29;20035;-74
2024/01/20 04:21:36;;;;;;;16.70;12.10;;;;;;;-1.14;76.44;99414.31;4939021;29;20031;-73
2024/01/20 04:24:01;;;;;;;17.73;13.10;;;;;;;-1.01;75.96;99430.72;4946420;29;20028;-74
2024/01/20 04:26:27;;;;;;;15.88;10.60;;;;;;;-1.28;76.55;99433.25;4935390;29;20499;-75
2024/01/20 04:28:52;;;;;;;16.85;12.05;;;;;;;-1.32;76.64;99442.41;4940489;29;20024;-75
2024/01/20 04:31:18;;;;;;;16.38;12.70;;;;;;;-1.41;76.62;99423.78;4941729;29;20542;-76
2024/01/20 04:33:43;;;;;;;17.20;12.63;;;;;;;-1.40;76.26;99446.56;4938191;29;20059;-75
2024/01/20 04:36:09;;;;;;;20.10;11.45;;;;;;;-1.52;76.63;99450.31;4952378;28;20045;-73
2024/01/20 04:38:34;;;;;;;20.77;13.30;;;;;;;-1.51;76.49;99444.06;4935854;29;20035;-75
2024/01/20 04:41:00;;;;;;;16.35;11.30;;;;;;;-1.61;76.71;99459.06;4947529;29;20609;-75
2024/01/20 04:43:27;;;;;;;19.38;10.63;;;;;;;-1.74;76.35;99447.94;4938613;29;20050;-75
2024/01/20 04:45:52;;;;;;;16.30;13.45;;;;;;;-1.61;76.16;99432.66;4915566;29;20042;-76
2024/01/20 04:48:19;;;;;;;20.90;11.68;;;;;;;-1.56;75.98;99456.84;4933853;29;20111;-74
2024/01/20 04:50:45;;;;;;;15.93;10.73;;;;;;;-1.58;76.65;99453.50;4937010;29;20110;-72
2024/01/20 04:53:10;;;;;;;18.50;13.80;;;;;;;-1.48;76.02;99438.53;4948079;29;20032;-74
2024/01/20 04:55:36;;;;;;;17.13;13.35;;;;;;;-1.42;76.35;99453.81;4934565;29;20067;-70
2024/01/20 04:58:01;;;;;;;16.08;13.30;;;;;;;-1.34;76.19;99444.34;4931652;29;20393;-72
2024/01/20 05:00:27;;;;;;;17.90;10.95;;;;;;;-1.46;76.20;99447.16;4938930;29;20042;-73
2024/01/20 05:02:52;;;;;;;21.17;12.20;;;;;;;-1.40;76.01;99441.28;4930771;29;20533;-75
2024/01/20 05:05:18;;;;;;;19.20;13.93;;;;;;;-1.41;76.17;99429.06;4935721;29;20500;-74
2024/01/20 05:07:43;;;;;;;18.83;12.07;;;;;;;-1.34;75.76;99449.66;4921720;29;20099;-73
2024/01/20 05:10:09;;;;;;;16.48;12.20;;;;;;;-1.41;76.75;99444.94;4937356;29;20040;-76
2024/01/20 05:12:34;;;;;;;18.20;14.85;;;;;;;-1.32;76.32;99442.41;4921685;29;20027;-75
2024/01/20 05:15:00;;;;;;;20.80;11.50;;;;;;;-1.45;76.04;99443.50;4952964;29;20102;-75
2024/01/20 05:17:25;;;;;;;18.13;14.32;;;;;;;-1.30;75.90;99461.59;4930318;29;20391;-75
2024/01/20 05:19:50;;;;;;;20.67;13.57;;;;;;;-1.66;76.33;99428.78;4928222;29;20051;-75
2024/01/20 05:22:17;;;;;;;16.25;13.27;;;;;;;-1.41;76.54;99471.34;4933692;29;20052;-74
2024/01/20 05:24:42;;;;;;;17.55;14.98;;;;;;;-1.31;76.05;99486.38;4934365;29;20039;-75
2024/01/20 05:27:08;;;;;;;88.30;52.33;;;;;;;-1.60;75.99;99487.16;4928234;29;20053;-74
2024/01/20 05:29:33;;;;;;;146.45;103.75;;;;;;;-1.61;76.67;99490.75;4912367;29;20099;-75
2024/01/20 05:31:59;;;;;;;27.00;19.70;;;;;;;-1.65;76.05;99504.38;4932600;29;20024;-74
2024/01/20 05:34:25;;;;;;;19.92;15.77;;;;;;;-1.70;75.98;99475.72;4922787;29;20050;-73
2024/01/20 05:36:50;;;;;;;19.23;15.35;;;;;;;-1.58;76.77;99510.78;4937760;29;20031;-74
2024/01/20 05:39:16;;;;;;;22.02;14.15;;;;;;;-1.60;76.59;99513.56;4923558;29;20115;-73
2024/01/20 05:41:41;;;;;;;22.00;13.88;;;;;;;-1.55;76.79;99510.50;4933483;29;20020;-74
2024/01/20 05:44:07;;;;;;;21.85;13.60;;;;;;;-1.50;76.67;99509.16;4932337;29;20561;-74
2024/01/20 05:46:33;;;;;;;19.75;15.73;;;;;;;-1.63;76.49;99458.38;4937627;28;20051;-76
2024/01/20 05:48:58;;;;;;;23.73;14.70;;;;;;;-1.43;76.43;99504.16;4934549;29;20039;-75
2024/01/20 05:51:23;;;;;;;17.92;13.38;;;;;;;-1.38;76.23;99508.03;4941402;29;20028;-76
2024/01/20 05:53:49;;;;;;;24.17;14.20;;;;;;;-1.40;76.33;99502.06;4945722;28;20131;-76
2024/01/20 05:56:15;;;;;;;17.95;14.45;;;;;;;-1.26;76.60;99500.81;4932963;29;20027;-74
2024/01/20 05:58:40;;;;;;;19.00;12.43;;;;;;;-1.41;76.02;99508.31;4939584;29;20035;-74
2024/01/20 06:01:09;;;;;;;20.15;13.15;;;;;;;-1.38;76.66;99500.09;4917596;29;20019;-74
2024/01/20 06:03:34;;;;;;;16.90;11.82;;;;;;;-1.44;76.76;99498.03;4930701;29;20125;-75
2024/01/20 06:06:00;;;;;;;18.38;12.40;;;;;;;-1.35;76.38;99517.50;4945836;23;20092;-69
2024/01/20 06:08:26;;;;;;;20.45;15.45;;;;;;;-1.23;76.66;99511.13;4930782;29;20459;-68
2024/01/20 06:10:51;;;;;;;18.65;12.85;;;;;;;-1.28;76.69;99517.81;4933421;29;20035;-69
2024/01/20 06:13:17;;;;;;;19.48;15.73;;;;;;;-1.18;75.78;99518.63;4937907;29;20036;-69
2024/01/20 06:15:42;;;;;;;20.35;13.15;;;;;;;-1.43;76.46;99528.75;4923143;29;20047;-69
2024/01/20 06:18:07;;;;;;;18.48;14.98;;;;;;;-1.29;76.71;99526.69;4936825;29;20083;-69
2024/01/20 06:20:33;;;;;;;19.15;16.85;;;;;;;-1.25;76.27;99528.06;4935130;29;20051;-69
2024/01/20 06:22:58;;;;;;;25.63;15.30;;;;;;;-1.39;76.29;99534.59;4933269;29;20038;-68
2024/01/20 06:25:23;;;;;;;20.85;15.38;;;;;;;-1.32;76.82;99532.25;4943051;28;20037;-68
2024/01/20 06:27:49;;;;;;;20.17;14.98;;;;;;;-1.32;76.72;99540.16;4919469;29;20043;-69
2024/01/20 06:30:14;;;;;;;18.73;16.15;;;;;;;-1.38;76.27;99529.16;4950066;28;20398;-69
2024/01/20 06:32:40;;;;;;;19.23;13.23;;;;;;;-1.40;76.04;99549.59;4930917;29;20048;-68
2024/01/20 06:35:06;;;;;;;20.38;13.63;;;;;;;-1.45;76.72;99551.81;4939617;29;20028;-69
2024/01/20 06:37:32;;;;;;;19.88;16.05;;;;;;;-1.42;76.81;99553.34;4932050;29;20051;-69
2024/01/20 06:39:57;;;;;;;17.98;13.02;;;;;;;-1.67;76.55;99528.28;4938641;29;20023;-69
2024/01/20 06:42:22;;;;;;;20.02;13.90;;;;;;;-1.58;76.97;99538.03;4927971;29;20078;-69
2024/01/20 06:44:48;;;;;;;20.48;13.82;;;;;;;-1.43;76.72;99560.47;4931389;28;20031;-69
2024/01/20 06:47:13;;;;;;;24.45;14.25;;;;;;;-1.44;76.38;99571.97;4936354;29;20044;-69
2024/01/20 06:49:39;;;;;;;24.90;15.23;;;;;;;-1.61;76.47;99550.69;4934002;29;20043;-69
2024/01/20 06:52:05;;;;;;;22.42;14.88;;;;;;;-1.43;77.06;99570.19;4938809;29;20046;-69
2024/01/20 06:54:30;;;;;;;21.42;18.52;;;;;;;-1.39;77.29;99576.88;4924512;29;20028;-69
2024/01/20 06:56:56;;;;;;;24.27;15.20;;;;;;;-1.59;77.08;99578.59;4919997;29;20040;-69
2024/01/20 06:59:21;;;;;;;25.45;16.52;;;;;;;-1.53;77.35;99583.38;4929370;29;20119;-69
2024/01/20 07:01:46;;;;;;;33.55;24.73;;;;;;;-1.41;77.30;99587.56;4942844;29;20452;-69
2024/01/20 07:04:12;;;;;;;25.83;17.45;;;;;;;-1.50;76.93;99583.09;4938596;29;20059;-70
2024/01/20 07:06:37;;;;;;;26.02;16.55;;;;;;;-1.50;77.17;99577.81;4918573;29;20047;-69
2024/01/20 07:09:05;;;;;;;21.58;17.15;;;;;;;-1.36;77.22;99583.69;4926258;29;20395;-69
2024/01/20 07:11:33;;;;;;;20.92;13.93;;;;;;;-1.53;76.95;99575.44;4917407;29;20047;-69
2024/01/20 07:13:59;;;;;;;22.45;14.13;;;;;;;-1.59;77.69;99568.03;4931769;29;20030;-68
2024/01/20 07:16:24;;;;;;;21.27;17.30;;;;;;;-1.33;77.01;99583.44;4935537;29;20045;-69
2024/01/20 07:18:50;;;;;;;24.58;14.27;;;;;;;-1.49;77.39;99584.75;4920452;29;20027;-69
2024/01/20 07:21:15;;;;;;;27.52;18.65;;;;;;;-1.49;77.10;99566.28;4929360;29;20039;-69
2024/01/20 07:23:40;;;;;;;28.38;17.85;;;;;;;-1.33;77.00;99575.50;4933946;29;20110;-69
2024/01/20 07:26:06;;;;;;;26.75;21.00;;;;;;;-1.27;76.49;99582.88;4915297;29;20044;-69
2024/01/20 07:28:31;;;;;;;24.75;18.42;;;;;;;-1.45;76.98;99583.50;4919615;29;20032;-69
2024/01/20 07:30:57;;;;;;;38.08;29.35;;;;;;;-1.35;76.59;99585.38;4930276;29;20043;-69
2024/01/20 07:33:22;;;;;;;25.73;16.63;;;;;;;-1.55;76.73;99585.31;4921564;29;20047;-69
2024/01/20 07:35:48;;;;;;;19.63;17.52;;;;;;;-1.33;76.78;99601.91;4938838;29;20042;-69
2024/01/20 07:38:13;;;;;;;19.27;17.13;;;;;;;-1.32;76.54;99603.56;4930460;29;20454;-69
2024/01/20 07:40:39;;;;;;;19.73;13.43;;;;;;;-1.48;76.82;99612.84;4944879;28;20036;-69
2024/01/20 07:43:05;;;;;;;20.90;17.17;;;;;;;-1.59;76.98;99578.59;4932805;29;20519;-69
2024/01/20 07:45:31;;;;;;;21.13;13.90;;;;;;;-1.55;76.47;99626.72;4921754;29;20044;-69
2024/01/20 07:47:59;;;;;;;21.02;17.40;;;;;;;-1.30;76.08;99628.03;4934589;29;20047;-69
2024/01/20 07:50:25;;;;;;;22.73;18.73;;;;;;;-1.24;76.50;99630.16;4938925;29;20542;-69
2024/01/20 07:52:50;;;;;;;21.23;17.85;;;;;;;-1.21;76.15;99619.34;4925983;29;20067;-69
2024/01/20 07:55:15;;;;;;;24.25;16.90;;;;;;;-1.36;76.48;99610.09;4922263;29;20040;-69
2024/01/20 07:57:41;;;;;;;21.17;18.85;;;;;;;-1.10;76.07;99616.56;4929571;29;20123;-70
2024/01/20 08:00:07;;;;;;;25.02;16.33;;;;;;;-1.21;76.40;99619.34;4928615;29;20503;-69
2024/01/20 08:02:36;;;;;;;20.95;14.65;;;;;;;-1.27;76.60;99631.28;4948106;29;20027;-69
2024/01/20 08:05:01;;;;;;;22.67;17.55;;;;;;;-1.06;76.66;99628.53;4937399;29;20031;-69
2024/01/20 08:07:27;;;;;;;23.35;15.52;;;;;;;-1.06;76.89;99631.19;4942028;29;20027;-69
2024/01/20 08:09:53;;;;;;;24.10;14.88;;;;;;;-1.07;76.33;99635.63;4931682;29;20044;-69
2024/01/20 08:12:18;;;;;;;24.77;18.23;;;;;;;-0.97;76.82;99627.72;4930145;29;20032;-69
2024/01/20 08:14:44;;;;;;;27.45;17.88;;;;;;;-1.04;76.49;99638.00;4937444;29;20110;-69
2024/01/20 08:17:09;;;;;;;23.40;20.17;;;;;;;-0.92;77.01;99636.94;4940053;29;20083;-69
2024/01/20 08:19:34;;;;;;;26.88;16.50;;;;;;;-1.08;76.89;99630.50;4929177;29;20060;-69
2024/01/20 08:22:00;;;;;;;28.30;18.08;;;;;;;-0.93;76.32;99644.97;4934294;29;20019;-69
2024/01/20 08:24:25;;;;;;;24.58;20.77;;;;;;;-0.74;76.48;99640.56;4940037;29;20046;-69
2024/01/20 08:26:51;;;;;;;28.63;18.38;;;;;;;-0.80;76.03;99633.19;4931045;29;20030;-69
2024/01/20 08:29:17;;;;;;;39.22;30.80;;;;;;;-0.70;75.60;99641.09;4924946;29;20047;-69
2024/01/20 08:31:42;;;;;;;45.47;25.63;;;;;;;-0.88;75.73;99632.19;4930175;29;20031;-69
2024/01/20 08:34:08;;;;;;;35.20;21.77;;;;;;;-0.76;76.18;99646.97;4927707;29;20124;-69
2024/01/20 08:36:33;;;;;;;45.83;33.63;;;;;;;-0.68;75.37;99649.78;4922774;29;20032;-69
2024/01/20 08:38:58;;;;;;;28.42;22.15;;;;;;;-0.65;75.74;99654.75;4934867;29;20101;-69
2024/01/20 08:41:24;;;;;;;59.78;41.13;;;;;;;-0.60;75.22;99659.63;4935921;28;20020;-69
2024/01/20 08:43:51;;;;;;;72.43;36.63;;;;;;;-0.92;75.15;99662.53;4946512;29;20043;-69
2024/01/20 08:46:16;;;;;;;36.03;22.08;;;;;;;-0.91;75.13;99669.50;4941779;29;20055;-69
2024/01/20 08:48:41;;;;;;;26.75;20.70;;;;;;;-0.76;75.20;99679.53;4931429;29;20063;-69
2024/01/20 08:51:07;;;;;;;22.83;17.73;;;;;;;-1.01;74.69;99671.28;4935924;28;20047;-69
2024/01/20 08:53:33;;;;;;;24.17;18.90;;;;;;;-1.06;74.52;99681.41;4923660;29;20032;-70
2024/01/20 08:55:59;;;;;;;22.23;15.15;;;;;;;-1.14;74.78;99678.59;4942989;29;20038;-70
2024/01/20 08:58:25;;;;;;;22.08;19.67;;;;;;;-0.81;73.96;99681.75;4933117;29;20036;-69
2024/01/20 09:00:50;;;;;;;24.77;20.13;;;;;;;-0.72;74.08;99685.38;4930976;29;20024;-72
2024/01/20 09:03:16;;;;;;;24.65;19.52;;;;;;;-0.76;74.55;99689.28;4923008;29;20039;-69
2024/01/20 09:05:41;;;;;;;23.67;19.23;;;;;;;-0.74;73.95;99682.03;4940277;29;20126;-69
2024/01/20 09:08:09;;;;;;;25.08;16.98;;;;;;;-1.20;74.26;99658.00;4926502;29;20086;-69
2024/01/20 09:10:36;;;;;;;26.65;16.17;;;;;;;-1.00;74.17;99680.84;4931746;29;20421;-69
2024/01/20 09:13:02;;;;;;;21.40;18.52;;;;;;;-1.02;74.23;99688.94;4941132;29;20040;-70
2024/01/20 09:15:27;;;;;;;25.05;20.02;;;;;;;-0.78;73.70;99701.81;4944898;29;20031;-69
2024/01/20 09:17:53;;;;;;;23.80;15.50;;;;;;;-1.29;74.04;99685.22;4930796;28;20039;-69
2024/01/20 09:20:19;;;;;;;23.83;15.43;;;;;;;-1.23;74.23;99690.81;4914414;29;20055;-69
2024/01/20 09:22:46;;;;;;;21.45;18.35;;;;;;;-1.17;74.30;99705.31;4908874;29;20067;-69
2024/01/20 09:25:11;;;;;;;22.08;19.67;;;;;;;-1.00;73.57;99709.94;4934720;29;20102;-69
2024/01/20 09:27:37;;;;;;;25.73;19.27;;;;;;;-1.09;74.08;99697.53;4925698;29;20130;-69
2024/01/20 09:30:03;;;;;;;23.85;15.93;;;;;;;-1.18;73.58;99714.19;4939389;29;20032;-69
2024/01/20 09:32:30;;;;;;;22.30;16.35;;;;;;;-1.15;73.91;99719.22;4936452;29;20549;-69
2024/01/20 09:34:56;;;;;;;22.42;18.40;;;;;;;-0.88;73.79;99714.16;4935150;29;20417;-69
2024/01/20 09:37:21;;;;;;;22.35;19.38;;;;;;;-0.99;74.05;99687.81;4938031;29;20111;-69
2024/01/20 09:39:47;;;;;;;23.85;16.17;;;;;;;-0.99;73.98;99719.56;4941811;29;20110;-69
2024/01/20 09:42:12;;;;;;;27.50;21.13;;;;;;;-0.57;73.22;99721.06;4935396;29;20114;-69
2024/01/20 09:44:38;;;;;;;23.13;20.42;;;;;;;-0.48;73.71;99712.28;4928448;29;20034;-68
2024/01/20 09:47:08;;;;;;;24.35;18.90;;;;;;;-0.41;73.55;99710.78;4932163;29;20555;-69
2024/01/20 09:49:33;;;;;;;27.08;17.20;;;;;;;-0.44;73.13;99713.69;4929696;29;20407;-69
2024/01/20 09:52:03;;;;;;;24.13;21.25;;;;;;;-0.51;73.52;99720.50;4924133;29;20031;-69
2024/01/20 09:54:29;;;;;;;27.40;17.35;;;;;;;-0.79;73.46;99721.28;4932578;29;20044;-69
2024/01/20 09:56:55;;;;;;;25.90;21.23;;;;;;;-0.84;74.10;99707.66;4933389;29;20075;-68
2024/01/20 09:59:21;;;;;;;28.17;22.42;;;;;;;-0.78;73.15;99718.50;4926022;29;20052;-69
2024/01/20 10:01:47;;;;;;;26.50;21.73;;;;;;;-0.66;73.24;99724.53;4930866;29;20024;-69
2024/01/20 10:04:13;;;;;;;29.33;19.88;;;;;;;-0.76;74.04;99731.59;4936365;29;20074;-69
2024/01/20 10:06:39;;;;;;;25.00;21.30;;;;;;;-0.53;73.53;99722.44;4900731;29;20055;-70
2024/01/20 10:09:05;;;;;;;25.67;21.83;;;;;;;-0.42;73.77;99717.03;4936917;29;20644;-69
2024/01/20 10:11:30;;;;;;;28.70;19.10;;;;;;;-0.33;73.35;99708.28;4932380;28;20040;-69
2024/01/20 10:13:56;;;;;;;29.88;24.58;;;;;;;0.12;72.47;99723.59;4935105;29;20047;-69
2024/01/20 10:16:22;;;;;;;31.17;23.60;;;;;;;0.21;72.43;99725.41;4927839;29;20054;-69
2024/01/20 10:18:48;;;;;;;25.10;22.25;;;;;;;0.37;71.88;99720.34;4935046;29;20490;-69
2024/01/20 10:21:13;;;;;;;31.25;25.83;;;;;;;0.31;72.45;99712.97;4923364;29;20024;-69
2024/01/20 10:23:39;;;;;;;32.83;25.92;;;;;;;0.42;71.44;99707.53;4931835;29;20043;-69
2024/01/20 10:26:06;;;;;;;28.35;24.65;;;;;;;0.57;71.41;99709.56;4935959;29;20399;-69
2024/01/20 10:28:31;;;;;;;29.63;24.77;;;;;;;0.62;71.14;99701.19;4938260;29;20114;-69
2024/01/20 10:30:57;;;;;;;26.73;23.73;;;;;;;0.82;70.37;99692.16;4947697;29;20466;-69
2024/01/20 10:33:23;;;;;;;29.23;24.13;;;;;;;0.91;70.18;99675.38;4932061;29;20048;-69
2024/01/20 10:35:52;;;;;;;27.90;24.88;;;;;;;1.01;69.48;99694.72;4909792;29;20024;-69
2024/01/20 10:38:21;;;;;;;29.38;25.60;;;;;;;0.92;69.59;99681.50;4925439;29;20113;-69
2024/01/20 10:40:53;;;;;;;24.58;21.83;;;;;;;0.75;70.09;99691.06;4924059;29;20084;-69
2024/01/20 10:43:18;;;;;;;29.20;23.15;;;;;;;0.66;69.86;99678.69;4919071;29;20040;-69
2024/01/20 10:45:53;;;;;;;29.42;25.00;;;;;;;0.95;68.89;99690.03;4914682;29;20030;-69
2024/01/20 10:48:20;;;;;;;29.08;23.55;;;;;;;1.08;69.05;99693.16;4928134;28;20067;-69
2024/01/20 10:50:52;;;;;;;31.65;25.75;;;;;;;1.23;69.03;99696.16;4939927;29;20393;-69
2024/01/20 10:53:17;;;;;;;30.67;25.35;;;;;;;1.21;68.61;99688.31;4937929;29;20392;-69
2024/01/20 10:55:45;;;;;;;28.95;24.33;;;;;;;1.15;68.68;99688.94;4921732;29;20043;-70
2024/01/20 10:58:12;;;;;;;27.40;24.25;;;;;;;1.15;69.21;99699.53;4927057;29;20058;-70
2024/01/20 11:00:38;;;;;;;28.85;25.75;;;;;;;1.14;69.22;99695.25;4932751;29;20463;-69
2024/01/20 11:03:05;;;;;;;29.42;24.98;;;;;;;1.05;68.63;99687.31;4941628;29;20038;-69
2024/01/20 11:05:32;;;;;;;30.38;26.05;;;;;;;0.91;68.44;99696.59;4944437;29;20035;-69
2024/01/20 11:08:05;;;;;;;31.08;24.75;;;;;;;0.75;69.02;99703.50;4940661;29;20577;-70
2024/01/20 11:10:37;;;;;;;29.48;26.00;;;;;;;0.64;69.13;99676.19;4931702;29;20118;-70
2024/01/20 11:13:04;;;;;;;32.63;28.02;;;;;;;0.72;68.67;99688.72;4922514;29;20404;-69